createdAt,value
2022-10-24T00:07:40.470Z,399.13153
2022-10-24T00:22:43.009Z,141.43399
2022-10-24T00:37:45.780Z,87.4973
2022-10-24T00:52:48.193Z,26.36905
2022-10-24T01:07:50.404Z,2.39719
2022-10-24T01:22:52.759Z,0
2022-10-24T01:37:54.974Z,0
2022-10-24T01:52:57.187Z,0
2022-10-24T02:07:59.436Z,0
2022-10-24T02:23:01.673Z,0
2022-10-24T02:38:03.967Z,0
2022-10-24T02:53:06.244Z,0
2022-10-24T03:08:08.537Z,0
2022-10-24T03:23:10.921Z,0
2022-10-24T03:38:13.226Z,0
2022-10-24T03:53:15.593Z,0
2022-10-24T04:08:17.974Z,0
2022-10-24T04:23:20.477Z,0
2022-10-24T04:38:22.779Z,0
2022-10-24T04:53:25.080Z,0
2022-10-24T05:08:27.391Z,0
2022-10-24T05:23:29.648Z,0
2022-10-24T05:38:31.949Z,0
2022-10-24T05:53:34.318Z,0
2022-10-24T06:08:36.620Z,0
2022-10-24T06:23:39.010Z,0
2022-10-24T06:38:41.331Z,0
2022-10-24T06:53:43.605Z,0
2022-10-24T07:08:45.906Z,0
2022-10-24T07:23:48.181Z,0
2022-10-24T07:38:50.688Z,0
2022-10-24T07:53:52.994Z,0
2022-10-24T08:08:55.328Z,0
2022-10-24T08:23:57.613Z,0
2022-10-24T08:39:00.008Z,0
2022-10-24T08:54:02.357Z,0
2022-10-24T09:09:04.667Z,0
2022-10-24T09:24:07.055Z,0
2022-10-24T09:39:09.461Z,0
2022-10-24T09:54:11.947Z,0
2022-10-24T10:09:14.157Z,0
2022-10-24T10:24:16.381Z,0
2022-10-24T10:39:18.707Z,0
2022-10-24T10:54:21.091Z,0
2022-10-24T11:09:23.611Z,0
2022-10-24T11:24:25.921Z,0
2022-10-24T11:39:28.205Z,0
2022-10-24T11:54:30.501Z,0
2022-10-24T12:09:34.467Z,0
2022-10-24T12:24:37.122Z,0
2022-10-24T12:39:39.514Z,0
2022-10-24T12:54:41.745Z,0
2022-10-24T13:09:43.996Z,0
2022-10-24T13:24:46.503Z,0
2022-10-24T13:39:48.895Z,0
2022-10-24T13:54:56.211Z,0
2022-10-24T14:09:59.049Z,1.19859
2022-10-24T14:25:01.331Z,5.99297
2022-10-24T14:40:03.996Z,19.17749
2022-10-24T14:55:06.396Z,33.56061
2022-10-24T15:10:12.044Z,64.72403
2022-10-24T15:25:15.709Z,119.85931
2022-10-24T15:40:18.008Z,191.7749
2022-10-24T15:55:20.402Z,194.17209
2022-10-24T16:10:22.758Z,207.35661
2022-10-24T16:25:25.115Z,266.08768
2022-10-24T16:40:27.401Z,334.4075
2022-10-24T16:55:29.716Z,490.22461
2022-10-24T17:10:32.044Z,642.44592
2022-10-24T17:25:34.378Z,572.92755
2022-10-24T17:40:36.676Z,858.19269
2022-10-24T17:55:46.105Z,687.99249
2022-10-24T18:10:49.381Z,811.44757
2022-10-24T18:25:51.678Z,731.14185
2022-10-24T18:40:54.109Z,550.15424
2022-10-24T18:55:56.553Z,432.69214
2022-10-24T19:10:59.020Z,897.74628
2022-10-24T19:26:01.430Z,1325.64404
2022-10-24T19:41:03.637Z,972.05902
2022-10-24T19:56:05.942Z,1180.61426
2022-10-24T20:11:08.313Z,1476.66675
2022-10-24T20:26:10.577Z,2339.65381
2022-10-24T20:41:12.925Z,1574.95142
2022-10-24T20:56:15.315Z,2750.77124
2022-10-24T21:11:17.663Z,1518.61755
2022-10-24T21:26:20.012Z,728.74463
2022-10-24T21:41:22.357Z,1003.22247
2022-10-24T21:56:24.732Z,514.19647
2022-10-24T22:11:27.086Z,351.18781
2022-10-24T22:26:29.342Z,465.05414
2022-10-24T22:41:31.663Z,395.53574
2022-10-24T22:56:33.967Z,369.16669
2022-10-24T23:11:36.303Z,219.34254
2022-10-24T23:26:38.615Z,142.63258
2022-10-24T23:41:40.849Z,95.88745
2022-10-24T23:56:43.264Z,85.10011
